Time;durP1;ratioP1;P1;durP2;ratioP2;P2;SDS_P1;SDS_P2;PMS_P1;PMS_P2;Temp;Humidity;BMP_temperature;BMP_pressure;BME280_temperature;BME280_humidity;BME280_pressure;Samples;Min_cycle;Max_cycle;Signal;HPM_P1;HPM_P2
2022/11/26 00:00:50;;;;;;;10.98;1.70;;;5.60;99.90;;;;;;5034782;28;20040;-75
2022/11/26 00:03:16;;;;;;;10.75;1.10;;;5.50;99.90;;;;;;5034369;28;20045;-75
2022/11/26 00:05:45;;;;;;;8.82;1.60;;;5.40;99.90;;;;;;5034861;28;20030;-75
2022/11/26 00:08:33;;;;;;;9.93;1.48;;;5.30;99.90;;;;;;5017048;28;20021;-75
2022/11/26 00:11:00;;;;;;;;;;;5.30;99.90;;;;;;5034060;28;20014;-75
2022/11/26 00:13:28;;;;;;;7.82;1.10;;;5.20;99.90;;;;;;5016868;28;20382;-75
2022/11/26 00:15:55;;;;;;;9.75;1.60;;;5.20;99.90;;;;;;5016972;28;20515;-75
2022/11/26 00:18:28;;;;;;;12.50;1.67;;;5.10;99.90;;;;;;5034649;28;20022;-75
2022/11/26 00:20:58;;;;;;;6.95;1.10;;;5.10;99.90;;;;;;5034667;28;20026;-75
2022/11/26 00:23:26;;;;;;;10.02;1.42;;;5.00;99.90;;;;;;5034003;28;20575;-75
2022/11/26 00:25:56;;;;;;;16.02;1.63;;;5.00;99.90;;;;;;5034495;28;20469;-75
2022/11/26 00:28:33;;;;;;;8.05;1.23;;;5.00;99.90;;;;;;5034279;28;20021;-75
2022/11/26 00:31:01;;;;;;;9.57;1.20;;;5.00;99.90;;;;;;5034450;28;20022;-75
2022/11/26 00:33:28;;;;;;;12.30;1.17;;;4.90;99.90;;;;;;5032864;28;20034;-75
2022/11/26 00:36:20;;;;;;;10.75;1.60;;;5.00;99.90;;;;;;5033112;28;20022;-75
2022/11/26 00:38:55;;;;;;;10.73;1.35;;;5.00;99.90;;;;;;5016704;28;20021;-75
2022/11/26 00:41:25;;;;;;;7.88;0.88;;;5.00;99.90;;;;;;5016479;28;20017;-75
2022/11/26 00:43:50;;;;;;;13.75;1.35;;;5.00;99.90;;;;;;5033583;28;20104;-75
2022/11/26 00:46:19;;;;;;;6.95;1.23;;;5.00;99.90;;;;;;5033229;28;20491;-74
2022/11/26 00:48:45;;;;;;;10.10;1.40;;;5.00;99.90;;;;;;5034580;28;20026;-75
2022/11/26 00:51:23;;;;;;;4.80;1.15;;;5.00;99.90;;;;;;5034752;28;20530;-75
2022/11/26 00:53:51;;;;;;;15.88;2.20;;;4.90;99.90;;;;;;5015704;28;20025;-75
2022/11/26 00:56:19;;;;;;;9.25;1.50;;;4.90;99.90;;;;;;5012432;28;20021;-75
2022/11/26 00:58:46;;;;;;;7.23;1.00;;;4.80;99.90;;;;;;5013078;28;20014;-75
2022/11/26 01:01:20;;;;;;;6.63;1.00;;;4.90;99.90;;;;;;5014072;28;20500;-75
2022/11/26 01:03:46;;;;;;;10.80;1.58;;;4.80;99.90;;;;;;5021230;28;20064;-75
2022/11/26 01:06:17;;;;;;;10.57;1.90;;;4.80;99.90;;;;;;5033666;28;20560;-74
2022/11/26 01:08:44;;;;;;;5.60;0.68;;;4.70;99.90;;;;;;5034386;28;20021;-75
2022/11/26 01:11:14;;;;;;;12.05;1.17;;;4.70;99.90;;;;;;5033596;28;20018;-75
2022/11/26 01:13:40;;;;;;;12.15;1.15;;;4.70;99.90;;;;;;5033735;28;20087;-75
2022/11/26 01:16:14;;;;;;;8.93;2.63;;;4.70;99.90;;;;;;5033804;28;20025;-75
2022/11/26 01:18:39;;;;;;;11.15;1.65;;;4.70;99.90;;;;;;5034255;28;20026;-75
2022/11/26 01:21:07;;;;;;;11.43;1.85;;;4.70;99.90;;;;;;5033724;28;20026;-75
2022/11/26 01:23:33;;;;;;;6.22;1.25;;;4.60;99.90;;;;;;5033226;28;20036;-75
2022/11/26 01:25:59;;;;;;;7.60;1.05;;;4.60;99.90;;;;;;5015905;28;20021;-75
2022/11/26 01:28:25;;;;;;;11.77;1.40;;;4.60;99.90;;;;;;5033338;28;20022;-75
2022/11/26 01:30:50;;;;;;;12.27;1.80;;;4.50;99.90;;;;;;5018790;28;20024;-75
2022/11/26 01:33:16;;;;;;;8.10;1.23;;;4.50;99.90;;;;;;5038674;28;20039;-75
2022/11/26 01:35:41;;;;;;;7.78;1.42;;;4.50;99.90;;;;;;5022251;28;20021;-75
2022/11/26 01:38:12;;;;;;;13.55;1.23;;;4.50;99.90;;;;;;5039974;28;20029;-75
2022/11/26 01:40:50;;;;;;;6.72;1.10;;;4.40;99.90;;;;;;5039893;28;20029;-75
2022/11/26 01:43:27;;;;;;;8.85;1.23;;;4.50;99.90;;;;;;5022073;28;20080;-75
2022/11/26 01:45:54;;;;;;;12.15;1.35;;;4.20;99.90;;;;;;5022083;28;20033;-75
2022/11/26 01:48:27;;;;;;;15.10;2.70;;;4.50;99.90;;;;;;5022322;28;20021;-75
2022/11/26 01:50:57;;;;;;;7.05;1.00;;;4.40;99.90;;;;;;5039164;28;20025;-75
2022/11/26 01:53:31;;;;;;;6.78;1.67;;;4.40;99.90;;;;;;5039775;28;20028;-75
2022/11/26 01:56:00;;;;;;;14.50;1.48;;;4.40;99.90;;;;;;5022200;28;20032;-75
2022/11/26 01:58:50;;;;;;;8.18;1.70;;;4.40;99.90;;;;;;5040112;28;20518;-75
2022/11/26 02:01:16;;;;;;;11.25;1.67;;;4.40;99.90;;;;;;5039959;28;20034;-75
2022/11/26 02:04:01;;;;;;;12.95;2.08;;;4.50;99.90;;;;;;5039510;28;20041;-74
2022/11/26 02:06:32;;;;;;;15.77;2.53;;;4.50;99.90;;;;;;5039700;28;20384;-75
2022/11/26 02:09:01;;;;;;;18.10;2.33;;;4.50;99.90;;;;;;5040487;28;20211;-75
2022/11/26 02:11:27;;;;;;;10.45;1.63;;;4.60;99.90;;;;;;5039800;28;20043;-74
2022/11/26 02:13:57;;;;;;;15.75;2.75;;;4.60;99.90;;;;;;5021794;28;20061;-74
2022/11/26 02:16:44;;;;;;;13.80;2.58;;;4.60;99.90;;;;;;5040027;28;20071;-74
2022/11/26 02:19:21;;;;;;;9.35;1.30;;;4.60;99.90;;;;;;5039842;28;20036;-74
2022/11/26 02:21:54;;;;;;;18.58;3.13;;;4.70;99.90;;;;;;5039898;28;20044;-75
2022/11/26 02:24:43;;;;;;;12.65;2.40;;;4.70;99.90;;;;;;5039910;28;20033;-75
2022/11/26 02:27:44;;;;;;;15.30;3.47;;;4.70;99.90;;;;;;5031590;28;20400;-74
2022/11/26 02:30:12;;;;;;;8.45;2.20;;;4.70;99.90;;;;;;4962650;28;20058;-75
2022/11/26 02:32:49;;;;;;;10.88;2.53;;;4.80;99.90;;;;;;5027921;28;20447;-75
2022/11/26 02:35:40;;;;;;;10.80;1.65;;;4.70;99.90;;;;;;5039177;28;20029;-75
2022/11/26 02:38:14;;;;;;;12.02;2.17;;;4.70;99.90;;;;;;5021846;28;20036;-75
2022/11/26 02:40:40;;;;;;;10.88;2.22;;;4.70;99.90;;;;;;5038764;28;20477;-75
2022/11/26 02:43:05;;;;;;;13.38;2.53;;;4.70;99.90;;;;;;5035630;28;20021;-75
2022/11/26 02:45:35;;;;;;;8.50;2.40;;;4.60;99.90;;;;;;5035886;28;20448;-75
2022/11/26 02:48:05;;;;;;;9.27;2.15;;;4.60;99.90;;;;;;5036873;28;20105;-75
2022/11/26 02:50:43;;;;;;;16.73;2.78;;;4.60;99.90;;;;;;5036308;28;20044;-75
2022/11/26 02:53:12;;;;;;;12.82;2.35;;;4.60;99.90;;;;;;5036241;28;20392;-75
2022/11/26 02:55:43;;;;;;;12.93;2.67;;;4.60;99.90;;;;;;5036238;28;20032;-75
2022/11/26 02:58:08;;;;;;;9.20;1.52;;;4.50;99.90;;;;;;5018517;28;20484;-75
2022/11/26 03:00:37;;;;;;;10.77;2.10;;;4.60;99.90;;;;;;5036278;28;20044;-74
2022/11/26 03:03:22;;;;;;;12.45;2.75;;;4.50;99.90;;;;;;5036303;28;20033;-75
2022/11/26 03:05:52;;;;;;;9.70;2.78;;;4.50;99.90;;;;;;5018083;28;20025;-74
2022/11/26 03:08:18;;;;;;;8.00;1.90;;;4.50;99.90;;;;;;5036001;28;20131;-75
2022/11/26 03:10:43;;;;;;;8.07;2.00;;;4.50;99.90;;;;;;5036540;28;20483;-75
2022/11/26 03:13:09;;;;;;;10.80;1.83;;;4.50;99.90;;;;;;5035555;28;20018;-75
2022/11/26 03:15:34;;;;;;;10.52;2.80;;;4.40;99.90;;;;;;5035773;28;20495;-75
2022/11/26 03:18:00;;;;;;;13.05;2.88;;;4.40;99.90;;;;;;5036123;28;20447;-75
2022/11/26 03:20:26;;;;;;;7.35;1.77;;;4.40;99.90;;;;;;5035804;28;20092;-75
2022/11/26 03:22:51;;;;;;;15.38;2.72;;;4.40;99.90;;;;;;5036071;28;20035;-75
2022/11/26 03:25:17;;;;;;;14.35;2.28;;;4.40;99.90;;;;;;5035057;28;20112;-74
2022/11/26 03:27:42;;;;;;;9.48;2.13;;;4.40;99.90;;;;;;5035636;28;20029;-75
2022/11/26 03:30:08;;;;;;;13.23;2.00;;;4.40;99.90;;;;;;5035687;28;20473;-75
2022/11/26 03:32:34;;;;;;;10.85;1.88;;;4.40;99.90;;;;;;5035597;28;20030;-75
2022/11/26 03:35:00;;;;;;;15.07;2.83;;;4.30;99.90;;;;;;5035266;28;20025;-75
2022/11/26 03:37:25;;;;;;;11.68;2.70;;;4.30;99.90;;;;;;5035487;28;20029;-74
2022/11/26 03:39:51;;;;;;;10.32;2.55;;;4.40;99.90;;;;;;5035420;28;20508;-75
2022/11/26 03:42:17;;;;;;;10.50;2.50;;;4.40;99.90;;;;;;5035717;28;20109;-75
2022/11/26 03:44:42;;;;;;;12.13;2.58;;;4.40;99.90;;;;;;5033428;28;20039;-75
2022/11/26 03:47:08;;;;;;;6.45;1.98;;;4.40;99.90;;;;;;5035312;28;20030;-75
2022/11/26 03:49:33;;;;;;;8.93;2.38;;;4.40;99.90;;;;;;5017699;28;20014;-75
2022/11/26 03:51:59;;;;;;;12.88;3.33;;;4.40;99.90;;;;;;5017250;28;20021;-75
2022/11/26 03:54:25;;;;;;;10.80;3.20;;;4.40;99.90;;;;;;5034592;28;20030;-75
2022/11/26 03:56:50;;;;;;;11.50;2.50;;;4.40;99.90;;;;;;5035200;28;20018;-75
2022/11/26 03:59:16;;;;;;;12.38;3.13;;;4.40;99.90;;;;;;5017097;28;20112;-75
2022/11/26 04:01:41;;;;;;;11.02;2.97;;;4.40;99.90;;;;;;5017478;28;20029;-75
2022/11/26 04:04:07;;;;;;;15.32;2.65;;;4.40;99.90;;;;;;5034535;28;20034;-75
2022/11/26 04:06:32;;;;;;;9.43;2.75;;;4.40;99.90;;;;;;5017115;28;20014;-75
2022/11/26 04:08:58;;;;;;;15.80;2.97;;;4.40;99.90;;;;;;5034859;28;20481;-75
2022/11/26 04:11:23;;;;;;;14.65;2.92;;;4.40;99.90;;;;;;5017107;28;20025;-74
2022/11/26 04:13:49;;;;;;;12.80;3.33;;;4.40;99.90;;;;;;5034878;28;20464;-75
2022/11/26 04:16:15;;;;;;;13.80;3.03;;;4.40;99.90;;;;;;5017102;28;20384;-75
2022/11/26 04:18:40;;;;;;;14.48;2.90;;;4.40;99.90;;;;;;5017081;28;20396;-74
2022/11/26 04:21:06;;;;;;;14.18;2.75;;;4.50;99.90;;;;;;5033277;28;20470;-75
2022/11/26 04:23:32;;;;;;;11.55;2.95;;;4.50;99.90;;;;;;5034678;28;20574;-75
2022/11/26 04:25:58;;;;;;;11.20;2.70;;;4.50;99.90;;;;;;5034649;28;20017;-75
2022/11/26 04:28:23;;;;;;;10.00;2.47;;;4.40;99.90;;;;;;5035243;28;20036;-75
2022/11/26 04:30:49;;;;;;;12.15;3.13;;;4.40;99.90;;;;;;5034976;28;20021;-75
2022/11/26 04:33:15;;;;;;;16.67;3.17;;;4.40;99.90;;;;;;5033947;28;20032;-75
2022/11/26 04:35:41;;;;;;;13.65;3.45;;;4.40;99.90;;;;;;5033922;28;20112;-75
2022/11/26 04:38:06;;;;;;;21.20;3.75;;;4.30;99.90;;;;;;5034525;28;20072;-75
2022/11/26 04:40:32;;;;;;;14.50;3.47;;;4.30;99.90;;;;;;5016449;28;20033;-75
2022/11/26 04:42:57;;;;;;;21.55;4.10;;;4.30;99.90;;;;;;5032694;28;20037;-75
2022/11/26 04:45:23;;;;;;;11.93;3.70;;;4.30;99.90;;;;;;5016335;28;20423;-74
2022/11/26 04:47:49;;;;;;;15.10;3.28;;;4.30;99.90;;;;;;5016306;28;20037;-75
2022/11/26 04:50:14;;;;;;;7.57;2.65;;;4.30;99.90;;;;;;5034508;28;20021;-75
2022/11/26 04:52:40;;;;;;;15.73;3.40;;;4.30;99.90;;;;;;5016367;28;20017;-75
2022/11/26 04:55:06;;;;;;;16.63;3.28;;;4.20;99.90;;;;;;5033804;28;20432;-75
2022/11/26 04:57:31;;;;;;;11.98;3.25;;;4.20;99.90;;;;;;5033887;28;20438;-75
2022/11/26 04:59:57;;;;;;;20.17;3.35;;;4.10;99.90;;;;;;5058949;22;20041;-74
2022/11/26 05:02:22;;;;;;;11.77;2.90;;;4.10;99.90;;;;;;5035743;28;20032;-74
2022/11/26 05:04:48;;;;;;;9.82;2.60;;;4.10;99.90;;;;;;5034945;28;20098;-74
2022/11/26 05:07:13;;;;;;;9.07;2.83;;;4.10;99.90;;;;;;5035399;28;20021;-74
2022/11/26 05:09:39;;;;;;;13.13;2.75;;;4.10;99.90;;;;;;5036080;28;20025;-74
2022/11/26 05:12:05;;;;;;;19.10;3.75;;;4.10;99.90;;;;;;5036224;28;20053;-74
2022/11/26 05:14:30;;;;;;;14.52;3.63;;;4.00;99.90;;;;;;5053458;28;20518;-74
2022/11/26 05:16:56;;;;;;;13.75;2.80;;;4.00;99.90;;;;;;5053675;28;20116;-74
2022/11/26 05:19:22;;;;;;;9.05;2.58;;;4.00;99.90;;;;;;5054170;28;20048;-74
2022/11/26 05:21:48;;;;;;;14.25;3.15;;;4.00;99.90;;;;;;5035633;28;20020;-74
2022/11/26 05:24:13;;;;;;;11.82;3.10;;;3.90;99.90;;;;;;5053498;28;20083;-74
2022/11/26 05:26:39;;;;;;;20.80;2.80;;;3.90;99.90;;;;;;5035452;28;20051;-74
2022/11/26 05:29:04;;;;;;;9.00;2.58;;;3.90;99.90;;;;;;5053966;28;20029;-74
2022/11/26 05:31:30;;;;;;;16.80;3.35;;;3.80;99.90;;;;;;5035571;28;20025;-74
2022/11/26 05:33:55;;;;;;;9.85;3.08;;;4.50;99.90;;;;;;5053388;28;20036;-74
2022/11/26 05:36:21;;;;;;;12.82;3.95;;;3.80;99.90;;;;;;5053272;28;20443;-74
2022/11/26 05:38:47;;;;;;;18.17;3.90;;;3.80;99.90;;;;;;5035551;28;20484;-74
2022/11/26 05:41:12;;;;;;;17.33;3.95;;;3.80;99.90;;;;;;5035826;28;20021;-74
2022/11/26 05:43:38;;;;;;;14.05;3.60;;;3.80;99.90;;;;;;5035091;28;20033;-74
2022/11/26 05:46:05;;;;;;;12.32;3.70;;;3.80;99.90;;;;;;5053473;28;20384;-74
2022/11/26 05:48:31;;;;;;;12.80;3.05;;;3.80;99.90;;;;;;5053596;28;20021;-74
2022/11/26 05:50:57;;;;;;;12.73;3.92;;;3.80;99.90;;;;;;5053530;28;20028;-74
2022/11/26 05:53:23;;;;;;;18.80;3.47;;;3.80;99.90;;;;;;5052984;28;20099;-74
2022/11/26 05:55:49;;;;;;;14.13;3.72;;;3.80;99.90;;;;;;5035422;28;20047;-74
2022/11/26 05:58:14;;;;;;;15.23;4.28;;;3.80;99.90;;;;;;5053589;28;20033;-74
2022/11/26 06:00:40;;;;;;;13.07;4.03;;;3.80;99.90;;;;;;5035582;28;20056;-74
2022/11/26 06:03:05;;;;;;;12.50;3.55;;;3.80;99.90;;;;;;5053269;28;20067;-74
2022/11/26 06:05:31;;;;;;;11.02;3.83;;;3.80;99.90;;;;;;5034310;28;20037;-74
2022/11/26 06:07:57;;;;;;;11.45;3.35;;;3.80;99.90;;;;;;5035033;28;20055;-74
2022/11/26 06:10:22;;;;;;;15.90;3.78;;;3.80;99.90;;;;;;5035100;28;20028;-74
2022/11/26 06:12:48;;;;;;;13.13;4.82;;;3.70;99.90;;;;;;5053002;28;20496;-74
2022/11/26 06:15:13;;;;;;;11.98;4.05;;;3.80;99.90;;;;;;5034822;28;20029;-74
2022/11/26 06:17:39;;;;;;;17.27;4.00;;;3.90;99.90;;;;;;5055770;28;20082;-74
2022/11/26 06:20:05;;;;;;;16.63;4.55;;;3.80;99.90;;;;;;5057361;28;20024;-74
2022/11/26 06:22:36;;;;;;;19.55;5.50;;;3.90;99.90;;;;;;5038821;28;20440;-74
2022/11/26 06:25:01;;;;;;;16.30;4.97;;;3.90;99.90;;;;;;5056267;28;20032;-74
2022/11/26 06:27:32;;;;;;;13.43;4.82;;;3.90;99.90;;;;;;5038942;28;20021;-74
2022/11/26 06:29:58;;;;;;;18.38;4.65;;;3.90;99.90;;;;;;5056676;28;20495;-74
2022/11/26 06:32:23;;;;;;;16.42;5.75;;;3.90;99.90;;;;;;5056608;28;20102;-74
2022/11/26 06:34:49;;;;;;;14.27;4.57;;;3.90;99.90;;;;;;5056189;28;20039;-74
2022/11/26 06:37:14;;;;;;;13.55;5.07;;;3.80;99.90;;;;;;5038365;28;20036;-74
2022/11/26 06:39:40;;;;;;;14.85;4.93;;;3.80;99.90;;;;;;5056607;28;20040;-74
2022/11/26 06:42:06;;;;;;;19.58;4.68;;;3.80;99.90;;;;;;5038466;28;20021;-74
2022/11/26 06:44:34;;;;;;;21.90;5.50;;;3.90;99.90;;;;;;5055972;28;20079;-74
2022/11/26 06:47:00;;;;;;;14.52;4.53;;;3.90;99.90;;;;;;5038243;28;20025;-74
2022/11/26 06:49:26;;;;;;;21.80;5.88;;;3.90;99.90;;;;;;5038314;28;20021;-74
2022/11/26 06:51:52;;;;;;;22.08;6.05;;;4.00;99.90;;;;;;5038359;28;20079;-74
2022/11/26 06:54:18;;;;;;;23.45;5.47;;;3.90;99.90;;;;;;5038025;28;20021;-73
2022/11/26 06:56:43;;;;;;;25.05;5.55;;;3.90;99.90;;;;;;5056172;28;20025;-74
2022/11/26 06:59:09;;;;;;;22.27;5.05;;;3.90;99.90;;;;;;5038316;28;20372;-74
2022/11/26 07:01:35;;;;;;;19.08;5.75;;;;;;;;;;5055924;28;20044;-74
2022/11/26 07:04:00;;;;;;;20.05;4.93;;;3.90;99.90;;;;;;5055688;28;20078;-74
2022/11/26 07:06:29;;;;;;;27.52;6.03;;;4.00;99.90;;;;;;5037837;28;20032;-74
2022/11/26 07:08:56;;;;;;;16.38;5.10;;;4.00;99.90;;;;;;5037903;28;20487;-74
2022/11/26 07:11:24;;;;;;;23.95;6.65;;;4.00;99.90;;;;;;5055586;28;20487;-74
2022/11/26 07:13:50;;;;;;;13.65;5.80;;;4.00;99.90;;;;;;5056138;28;20036;-75
2022/11/26 07:16:16;;;;;;;18.33;6.47;;;4.10;99.90;;;;;;5037881;28;20029;-75
2022/11/26 07:18:41;;;;;;;22.77;5.53;;;4.20;99.90;;;;;;5055989;28;20021;-74
2022/11/26 07:21:10;;;;;;;21.70;6.47;;;4.20;99.90;;;;;;5055680;28;20013;-74
2022/11/26 07:23:36;;;;;;;17.40;5.65;;;4.20;99.90;;;;;;5055631;28;20051;-74
2022/11/26 07:26:03;;;;;;;21.23;5.82;;;4.70;99.90;;;;;;5037598;28;20025;-74
2022/11/26 07:28:29;;;;;;;22.42;5.80;;;4.30;99.90;;;;;;5055313;28;20479;-74
2022/11/26 07:30:59;;;;;;;16.98;5.60;;;4.30;99.90;;;;;;5037642;28;20032;-74
2022/11/26 07:33:25;;;;;;;27.67;5.53;;;4.30;99.90;;;;;;5055926;28;20025;-74
2022/11/26 07:35:50;;;;;;;19.00;6.03;;;4.40;99.90;;;;;;5055380;28;20021;-74
2022/11/26 07:38:16;;;;;;;20.85;5.63;;;4.40;99.90;;;;;;5037359;28;20106;-74
2022/11/26 07:40:41;;;;;;;23.38;6.15;;;4.50;99.90;;;;;;5055483;28;20032;-74
2022/11/26 07:43:07;;;;;;;26.25;6.43;;;4.40;99.90;;;;;;5037596;28;20031;-74
2022/11/26 07:45:37;;;;;;;25.25;6.63;;;4.50;99.90;;;;;;5055631;28;20033;-74
2022/11/26 07:48:03;;;;;;;25.33;6.32;;;4.50;99.90;;;;;;5055097;28;20017;-74
2022/11/26 07:50:30;;;;;;;27.25;7.07;;;4.50;99.90;;;;;;5037392;28;20443;-74
2022/11/26 07:52:55;;;;;;;22.73;5.50;;;4.50;99.90;;;;;;5055241;28;20017;-74
2022/11/26 07:55:24;;;;;;;18.58;5.53;;;4.60;99.90;;;;;;5055166;28;20043;-74
2022/11/26 07:57:49;;;;;;;13.45;5.78;;;4.60;99.90;;;;;;5056063;28;20096;-74
2022/11/26 08:00:15;;;;;;;19.40;6.32;;;4.70;99.90;;;;;;5054757;28;20068;-74
2022/11/26 08:02:41;;;;;;;18.58;5.70;;;4.70;99.90;;;;;;5054648;28;20025;-74
2022/11/26 08:05:07;;;;;;;23.38;5.45;;;4.70;99.90;;;;;;5055090;28;20099;-74
2022/11/26 08:07:35;;;;;;;14.52;4.80;;;4.70;99.90;;;;;;5036984;28;20040;-74
2022/11/26 08:10:01;;;;;;;18.55;5.40;;;4.80;99.90;;;;;;5055399;28;20024;-74
2022/11/26 08:12:26;;;;;;;19.42;5.25;;;4.90;99.90;;;;;;5054810;28;20024;-74
2022/11/26 08:14:52;;;;;;;18.50;5.15;;;4.90;99.90;;;;;;5036720;28;20032;-74
2022/11/26 08:17:17;;;;;;;16.63;6.07;;;4.90;99.90;;;;;;5036847;28;20021;-74
2022/11/26 08:19:43;;;;;;;16.58;5.35;;;5.00;99.90;;;;;;5054906;28;20057;-74
2022/11/26 08:22:08;;;;;;;15.77;5.40;;;5.00;99.90;;;;;;5054500;28;20025;-74
2022/11/26 08:24:34;;;;;;;21.00;6.00;;;5.10;99.90;;;;;;5054536;28;20189;-74
2022/11/26 08:27:00;;;;;;;19.42;5.03;;;5.30;99.90;;;;;;5054522;28;20013;-74
2022/11/26 08:29:26;;;;;;;20.42;5.25;;;5.10;99.90;;;;;;5054585;28;20023;-74
2022/11/26 08:31:51;;;;;;;21.25;5.82;;;5.20;99.90;;;;;;5054618;28;20029;-74
2022/11/26 08:34:17;;;;;;;21.00;5.13;;;5.20;99.90;;;;;;5054088;28;20066;-74
2022/11/26 08:36:44;;;;;;;23.55;4.75;;;5.20;99.90;;;;;;5054165;28;20032;-74
2022/11/26 08:39:16;;;;;;;17.65;4.28;;;5.30;99.90;;;;;;5036434;28;20035;-74
2022/11/26 08:41:41;;;;;;;12.73;4.53;;;5.30;99.90;;;;;;5053810;28;20028;-74
2022/11/26 08:44:07;;;;;;;18.48;5.18;;;5.40;99.90;;;;;;5054365;28;20483;-74
2022/11/26 08:46:34;;;;;;;22.10;5.20;;;5.40;99.90;;;;;;5036222;28;20388;-75
2022/11/26 08:48:59;;;;;;;17.58;5.18;;;5.50;99.90;;;;;;5036284;28;20120;-74
2022/11/26 08:51:25;;;;;;;15.85;5.30;;;5.60;99.90;;;;;;5054878;28;20056;-74
2022/11/26 08:53:51;;;;;;;20.23;5.65;;;5.60;99.90;;;;;;5036607;28;20029;-74
2022/11/26 08:56:16;;;;;;;15.07;5.28;;;5.60;99.90;;;;;;5036347;28;20028;-74
2022/11/26 08:58:47;;;;;;;21.02;5.65;;;5.70;99.90;;;;;;5054299;28;20029;-75
2022/11/26 09:01:25;;;;;;;27.73;5.32;;;5.90;99.90;;;;;;5053638;28;20059;-76
2022/11/26 09:03:52;;;;;;;16.15;4.63;;;5.80;99.90;;;;;;5054189;28;20021;-75
2022/11/26 09:06:19;;;;;;;14.27;3.97;;;5.90;99.90;;;;;;5053507;28;20100;-76
2022/11/26 09:11:29;;;;;;;22.83;6.13;;;6.00;99.90;;;;;;5054640;28;20036;-76
2022/11/26 09:13:56;;;;;;;16.48;4.10;;;6.10;99.90;;;;;;5035947;28;20112;-75
2022/11/26 09:16:22;;;;;;;21.27;5.63;;;6.20;99.90;;;;;;5053697;28;20025;-75
2022/11/26 09:18:48;;;;;;;17.42;6.20;;;6.20;99.90;;;;;;5053549;28;20045;-75
2022/11/26 09:21:14;;;;;;;14.93;3.85;;;6.30;99.90;;;;;;5053385;28;20468;-75
2022/11/26 09:23:40;;;;;;;15.13;5.15;;;6.40;99.90;;;;;;5035736;28;20017;-75
2022/11/26 09:26:05;;;;;;;19.05;4.28;;;6.50;99.90;;;;;;5053609;28;20070;-75
2022/11/26 09:28:31;;;;;;;14.40;4.68;;;6.50;99.90;;;;;;5035896;28;20029;-75
2022/11/26 09:30:57;;;;;;;18.60;4.90;;;6.30;99.90;;;;;;5035741;28;20114;-75
2022/11/26 09:33:23;;;;;;;17.63;3.58;;;6.60;99.90;;;;;;5053382;28;20029;-75
2022/11/26 09:35:48;;;;;;;19.75;4.38;;;6.70;99.90;;;;;;5035061;28;20028;-75
2022/11/26 09:38:14;;;;;;;30.05;5.18;;;6.70;99.90;;;;;;5035134;28;20025;-75
2022/11/26 09:40:53;;;;;;;21.50;4.50;;;6.70;99.90;;;;;;5053449;28;20055;-75
2022/11/26 09:43:37;;;;;;;19.85;4.18;;;6.70;99.90;;;;;;5053454;28;20029;-75
2022/11/26 09:46:04;;;;;;;18.05;4.30;;;6.80;99.90;;;;;;5053433;28;20025;-75
2022/11/26 09:48:32;;;;;;;23.90;4.78;;;6.80;99.90;;;;;;5035437;28;20025;-75
2022/11/26 09:51:09;;;;;;;13.45;3.67;;;6.80;99.90;;;;;;5053461;28;20021;-75
2022/11/26 09:53:40;;;;;;;12.85;4.47;;;6.80;99.90;;;;;;5039376;28;20455;-75
2022/11/26 09:56:12;;;;;;;16.90;4.88;;;6.90;99.90;;;;;;5039567;28;20082;-75
2022/11/26 09:58:56;;;;;;;13.82;4.25;;;6.90;99.90;;;;;;5057290;28;20032;-75
2022/11/26 10:01:23;;;;;;;20.35;4.40;;;6.90;99.90;;;;;;5039299;28;20059;-75
2022/11/26 10:03:50;;;;;;;19.73;4.10;;;7.10;99.90;;;;;;5038694;28;20458;-75
2022/11/26 10:06:39;;;;;;;21.17;5.03;;;7.10;99.90;;;;;;5039192;28;20430;-75
2022/11/26 10:09:28;;;;;;;18.50;5.00;;;7.30;99.90;;;;;;5057710;28;20506;-75
2022/11/26 10:11:56;;;;;;;19.45;4.95;;;7.30;99.90;;;;;;5056982;28;20051;-75
2022/11/26 10:14:34;;;;;;;18.08;4.20;;;7.40;99.90;;;;;;5057079;28;20025;-75
2022/11/26 10:17:06;;;;;;;17.17;4.47;;;7.50;99.90;;;;;;5038914;28;20028;-75
2022/11/26 10:19:58;;;;;;;19.48;4.60;;;7.60;99.90;;;;;;5038661;28;20025;-75
2022/11/26 10:22:36;;;;;;;15.30;4.57;;;7.60;99.90;;;;;;5038653;28;20033;-75
2022/11/26 10:25:11;;;;;;;20.83;4.63;;;7.70;99.90;;;;;;5038998;28;20028;-75
2022/11/26 10:27:38;;;;;;;18.15;4.70;;;7.80;99.90;;;;;;5057177;28;20103;-75
2022/11/26 10:30:22;;;;;;;22.77;4.50;;;8.10;99.90;;;;;;5057283;28;20103;-75
2022/11/26 10:32:50;;;;;;;21.35;4.70;;;8.10;99.90;;;;;;5056859;28;20028;-75
2022/11/26 10:35:18;;;;;;;28.48;4.65;;;8.30;99.90;;;;;;5038733;28;20112;-75
2022/11/26 10:37:44;;;;;;;17.67;3.60;;;8.50;99.90;;;;;;5056364;28;20033;-75
2022/11/26 10:40:17;;;;;;;16.70;3.55;;;8.70;99.90;;;;;;5056504;28;20434;-75
2022/11/26 10:42:49;;;;;;;20.10;4.55;;;8.90;99.90;;;;;;5038760;28;20036;-75
2022/11/26 10:45:21;;;;;;;21.80;4.25;;;9.00;99.90;;;;;;5056524;28;20479;-75
2022/11/26 10:47:47;;;;;;;12.68;4.40;;;9.20;99.90;;;;;;5038668;28;20017;-75
2022/11/26 10:50:23;;;;;;;23.75;4.78;;;9.30;99.90;;;;;;5056464;28;20017;-75
2022/11/26 10:52:50;;;;;;;15.50;3.13;;;9.70;99.90;;;;;;5055966;28;20190;-75
2022/11/26 10:55:28;;;;;;;14.30;2.85;;;9.80;99.90;;;;;;5055976;28;20025;-75
2022/11/26 10:58:05;;;;;;;21.92;3.38;;;9.90;99.90;;;;;;5056313;28;20051;-75
2022/11/26 11:00:35;;;;;;;17.52;2.67;;;10.00;99.90;;;;;;5038084;28;20108;-75
2022/11/26 11:03:02;;;;;;;12.70;1.98;;;10.00;99.90;;;;;;5037537;28;20023;-75
2022/11/26 11:05:28;;;;;;;11.00;3.08;;;10.00;99.90;;;;;;5038097;28;20511;-75
2022/11/26 11:07:54;;;;;;;11.90;2.88;;;10.00;99.90;;;;;;5056416;28;20044;-75
2022/11/26 11:10:23;;;;;;;10.00;2.42;;;9.80;99.90;;;;;;5038588;28;20013;-75
2022/11/26 11:12:59;;;;;;;16.67;2.88;;;9.90;99.90;;;;;;5038332;28;20025;-74
2022/11/26 11:15:32;;;;;;;16.58;3.45;;;9.80;99.90;;;;;;5056054;28;20126;-75
2022/11/26 11:17:59;;;;;;;16.10;2.70;;;9.70;99.90;;;;;;5038497;28;20108;-75
2022/11/26 11:20:37;;;;;;;10.32;2.50;;;9.60;99.90;;;;;;5056067;28;20036;-75
2022/11/26 11:23:02;;;;;;;16.23;2.95;;;9.60;99.90;;;;;;5038393;28;20484;-74
2022/11/26 11:25:31;;;;;;;16.55;2.83;;;9.60;99.90;;;;;;5055594;28;20032;-75
2022/11/26 11:28:27;;;;;;;21.10;3.22;;;9.60;99.90;;;;;;5055790;28;20021;-75
2022/11/26 11:31:09;;;;;;;24.13;3.38;;;9.60;99.90;;;;;;5055230;28;20428;-75
2022/11/26 11:33:35;;;;;;;17.05;3.72;;;9.70;99.90;;;;;;5037733;28;20036;-75
2022/11/26 11:36:12;;;;;;;17.55;3.90;;;9.80;99.90;;;;;;5037730;28;20097;-75
2022/11/26 11:38:47;;;;;;;17.10;2.70;;;9.90;99.90;;;;;;5037846;28;20523;-75
2022/11/26 11:41:26;;;;;;;11.30;2.80;;;10.10;99.90;;;;;;5055337;28;20036;-75
2022/11/26 11:44:26;;;;;;;15.25;3.38;;;10.10;99.90;;;;;;5055565;28;20100;-75
2022/11/26 11:47:11;;;;;;;14.57;3.17;;;10.20;99.90;;;;;;5024547;28;20037;-75
2022/11/26 11:49:49;;;;;;;12.57;1.75;;;10.20;99.90;;;;;;5056189;28;20021;-76
2022/11/26 11:52:45;;;;;;;21.60;2.95;;;10.20;99.90;;;;;;5037676;28;20027;-76
2022/11/26 11:55:29;;;;;;;17.13;1.30;;;10.20;99.90;;;;;;5037086;28;20035;-76
2022/11/26 11:58:40;;;;;;;17.25;1.98;;;10.20;99.90;;;;;;5037021;28;20085;-76
2022/11/26 12:01:22;;;;;;;11.18;2.88;;;10.20;99.90;;;;;;5037483;28;20101;-76
2022/11/26 12:03:59;;;;;;;14.40;3.03;;;10.20;99.90;;;;;;5055711;28;20373;-76
2022/11/26 12:06:48;;;;;;;13.50;2.05;;;10.20;99.90;;;;;;5037382;28;20488;-75
2022/11/26 12:09:23;;;;;;;18.20;2.33;;;10.30;99.90;;;;;;5054955;28;20035;-75
2022/11/26 12:12:10;;;;;;;11.48;2.00;;;10.40;99.90;;;;;;5055099;28;20021;-75
2022/11/26 12:14:43;;;;;;;9.75;1.65;;;10.60;99.90;;;;;;5036650;28;20055;-75
2022/11/26 12:17:34;;;;;;;9.13;1.27;;;10.60;99.90;;;;;;5055543;28;20056;-75
2022/11/26 12:20:13;;;;;;;12.13;2.47;;;10.60;99.90;;;;;;5054608;28;20055;-75
2022/11/26 12:22:47;;;;;;;7.55;1.23;;;10.70;99.90;;;;;;5054217;28;20028;-76
2022/11/26 12:25:29;;;;;;;18.38;2.80;;;10.70;99.90;;;;;;5036513;28;20035;-75
2022/11/26 12:28:03;;;;;;;10.30;1.85;;;10.70;99.90;;;;;;5036978;28;20052;-75
2022/11/26 12:31:00;;;;;;;11.63;1.77;;;10.70;99.90;;;;;;5055217;28;20021;-75
2022/11/26 12:33:42;;;;;;;10.57;1.90;;;10.70;99.90;;;;;;5055173;28;20460;-75
2022/11/26 12:36:50;;;;;;;11.60;2.70;;;10.60;99.90;;;;;;5054133;28;20464;-75
2022/11/26 12:39:44;;;;;;;13.95;1.63;;;13.90;99.90;;;;;;5054587;28;20037;-75
2022/11/26 12:42:45;;;;;;;18.92;2.17;;;10.50;99.90;;;;;;5008844;28;20033;-75
2022/11/26 12:45:17;;;;;;;6.40;1.55;;;10.50;99.90;;;;;;5022434;28;20052;-75
2022/11/26 12:47:58;;;;;;;10.10;2.17;;;10.50;99.90;;;;;;5055043;28;20053;-75
2022/11/26 12:50:42;;;;;;;11.75;2.47;;;10.50;99.90;;;;;;5036178;28;20013;-75
2022/11/26 12:53:17;;;;;;;15.70;3.13;;;10.50;99.90;;;;;;5054894;28;20101;-75
2022/11/26 12:56:00;;;;;;;12.45;2.22;;;10.40;99.90;;;;;;5054261;28;20021;-75
2022/11/26 12:58:38;;;;;;;8.88;2.47;;;10.40;99.90;;;;;;5054541;28;20036;-75
2022/11/26 13:01:03;;;;;;;17.30;1.92;;;10.50;99.90;;;;;;5035965;28;20033;-76
2022/11/26 13:03:32;;;;;;;22.83;3.80;;;10.40;99.90;;;;;;5035832;28;20116;-75
2022/11/26 13:06:35;;;;;;;11.98;2.28;;;10.50;99.90;;;;;;5053734;28;20025;-75